Time;durP1;ratioP1;P1;durP2;ratioP2;P2;SDS_P1;SDS_P2;PMS_P1;PMS_P2;Temp;Humidity;BMP_temperature;BMP_pressure;BME280_temperature;BME280_humidity;BME280_pressure;Samples;Min_cycle;Max_cycle;Signal;HPM_P1;HPM_P2
2022/05/25 00:01:50;;;;;;;8.10;4.50;;;;;;;10.17;100.00;99337.03;7391572;19;20376;-57
2022/05/25 00:04:20;;;;;;;6.37;4.10;;;;;;;10.18;100.00;99333.63;7387990;19;20416;-56
2022/05/25 00:06:52;;;;;;;4.80;4.10;;;;;;;10.13;100.00;99326.69;7393799;19;20412;-57
2022/05/25 00:09:23;;;;;;;6.60;4.53;;;;;;;10.07;100.00;99313.66;7388033;19;20411;-58
2022/05/25 00:11:53;;;;;;;5.50;4.40;;;;;;;10.03;100.00;99314.44;7393134;19;20401;-58
2022/05/25 00:14:23;;;;;;;6.03;4.10;;;;;;;9.94;100.00;99306.53;7388835;19;20445;-58
2022/05/25 00:16:52;;;;;;;5.77;4.60;;;;;;;9.93;100.00;99297.91;7393703;19;20407;-57
2022/05/25 00:22:07;;;;;;;7.30;5.30;;;;;;;9.86;100.00;99284.03;7391335;19;20384;-56
2022/05/25 00:24:37;;;;;;;6.53;5.40;;;;;;;9.85;100.00;99290.00;7387469;19;20419;-54
2022/05/25 00:27:07;;;;;;;9.40;4.87;;;;;;;9.85;100.00;99279.72;7393418;19;20463;-57
2022/05/25 00:29:36;;;;;;;6.50;5.37;;;;;;;9.82;100.00;99271.03;7388014;19;20827;-57
2022/05/25 00:32:06;;;;;;;7.83;5.73;;;;;;;9.77;100.00;99265.81;7392416;19;20400;-58
2022/05/25 00:34:36;;;;;;;12.23;6.03;;;;;;;9.77;100.00;99263.22;7387533;19;20436;-58
2022/05/25 00:37:08;;;;;;;8.80;5.90;;;;;;;9.71;100.00;99257.94;7393161;19;20391;-58
2022/05/25 00:39:40;;;;;;;11.10;6.30;;;;;;;9.69;100.00;99250.19;7388201;19;20502;-56
2022/05/25 00:42:10;;;;;;;8.47;6.30;;;;;;;9.68;100.00;99242.41;7394241;19;20409;-57
2022/05/25 00:44:40;;;;;;;9.43;6.23;;;;;;;9.65;100.00;99229.50;7398515;19;20458;-58
2022/05/25 00:47:11;;;;;;;10.77;6.97;;;;;;;9.69;100.00;99226.16;7400363;19;20411;-57
2022/05/25 00:49:41;;;;;;;8.60;6.30;;;;;;;9.65;100.00;99219.19;7399886;19;20937;-58
2022/05/25 00:52:14;;;;;;;9.47;7.10;;;;;;;9.63;100.00;99205.41;7399024;19;20410;-57
2022/05/25 00:54:47;;;;;;;9.60;6.30;;;;;;;9.63;100.00;99200.28;7399388;19;20516;-56
2022/05/25 00:57:21;;;;;;;12.43;7.57;;;;;;;9.65;100.00;99186.56;7395454;19;20388;-59
2022/05/25 00:59:57;;;;;;;7.70;6.57;;;;;;;9.63;100.00;99183.09;7399562;19;20451;-55
2022/05/25 01:02:28;;;;;;;9.23;6.73;;;;;;;9.60;100.00;99177.91;7391787;19;20431;-55
2022/05/25 01:04:58;;;;;;;11.87;7.70;;;;;;;9.63;100.00;99171.94;7399538;19;20388;-56
2022/05/25 01:07:44;;;;;;;10.33;7.80;;;;;;;9.63;100.00;99170.22;7395110;19;20475;-58
2022/05/25 01:10:24;;;;;;;8.33;6.70;;;;;;;9.63;100.00;99169.38;7400160;19;20459;-57
2022/05/25 01:13:04;;;;;;;11.70;7.33;;;;;;;9.61;100.00;99168.44;7392614;19;21350;-58
2022/05/25 01:15:40;;;;;;;11.60;7.00;;;;;;;9.61;100.00;99165.88;7399760;19;20387;-56
2022/05/25 01:18:19;;;;;;;14.80;8.30;;;;;;;9.57;100.00;99160.69;7392623;19;20410;-56
2022/05/25 01:20:51;;;;;;;12.47;7.50;;;;;;;9.55;100.00;99167.47;7399072;19;20383;-56
2022/05/25 01:23:56;;;;;;;11.40;8.27;;;;;;;9.56;100.00;99158.06;7392111;19;20414;-54
2022/05/25 01:26:48;;;;;;;10.73;8.00;;;;;;;9.52;100.00;99158.81;7396435;19;20761;-57
2022/05/25 01:29:47;;;;;;;12.43;8.63;;;;;;;9.52;100.00;99153.69;7393862;19;20407;-56
2022/05/25 01:32:26;;;;;;;13.23;9.10;;;;;;;9.48;100.00;99150.19;7391018;19;20508;-58
2022/05/25 01:35:01;;;;;;;12.13;9.10;;;;;;;9.46;100.00;99157.00;7398015;19;20379;-56
2022/05/25 01:37:36;;;;;;;10.80;9.03;;;;;;;9.42;100.00;99155.19;7394264;19;20450;-58
2022/05/25 01:40:12;;;;;;;13.37;9.13;;;;;;;9.41;100.00;99159.50;7398684;19;20379;-55
2022/05/25 01:42:46;;;;;;;11.43;8.70;;;;;;;9.44;100.00;99158.69;7391232;19;20742;-57
2022/05/25 01:45:20;;;;;;;11.63;9.20;;;;;;;9.38;100.00;99158.56;7398479;19;20383;-54
2022/05/25 01:47:51;;;;;;;12.37;9.57;;;;;;;9.41;100.00;99167.22;7392703;19;20752;-57
2022/05/25 01:50:24;;;;;;;11.13;8.93;;;;;;;9.43;100.00;99154.34;7398288;19;20433;-53
2022/05/25 01:52:56;;;;;;;14.10;8.77;;;;;;;9.44;100.00;99153.53;7390521;19;20433;-55
2022/05/25 01:55:28;;;;;;;11.17;8.50;;;;;;;9.46;100.00;99154.44;7397374;19;20394;-58
2022/05/25 01:58:01;;;;;;;14.43;9.93;;;;;;;9.46;100.00;99151.88;7392530;19;20410;-57
2022/05/25 02:00:37;;;;;;;12.40;9.77;;;;;;;9.44;100.00;99151.81;7401850;19;20402;-55
2022/05/25 02:06:03;;;;;;;13.30;9.30;;;;;;;9.46;100.00;99151.88;7397620;19;20912;-55
2022/05/25 02:08:41;;;;;;;12.93;9.67;;;;;;;9.45;100.00;99147.56;7370047;19;20510;-57
2022/05/25 02:11:16;;;;;;;13.60;9.50;;;;;;;9.47;100.00;99161.31;7401220;19;20398;-55
2022/05/25 02:14:00;;;;;;;13.43;10.10;;;;;;;9.49;100.00;99156.22;7390852;19;20437;-54
2022/05/25 02:16:41;;;;;;;15.57;9.60;;;;;;;9.48;100.00;99155.31;7397609;19;20387;-56
2022/05/25 02:19:14;;;;;;;15.07;11.90;;;;;;;9.48;100.00;99157.06;7391140;19;20950;-53
2022/05/25 02:21:49;;;;;;;13.43;9.97;;;;;;;9.46;100.00;99162.16;7396626;19;20394;-54
2022/05/25 02:24:24;;;;;;;12.50;10.33;;;;;;;9.44;100.00;99180.13;7391525;19;20406;-58
2022/05/25 02:26:55;;;;;;;13.40;10.83;;;;;;;9.47;100.00;99169.03;7396939;19;20759;-54
2022/05/25 02:29:28;;;;;;;15.43;10.00;;;;;;;9.49;100.00;99172.50;7391879;19;20421;-53
2022/05/25 02:32:05;;;;;;;13.97;11.00;;;;;;;9.52;100.00;99174.28;7395701;19;20384;-57
2022/05/25 02:34:35;;;;;;;14.30;10.97;;;;;;;9.54;100.00;99181.19;7391806;19;20406;-56
2022/05/25 02:37:05;;;;;;;12.73;10.10;;;;;;;9.56;100.00;99184.69;7396293;19;20747;-58
2022/05/25 02:39:34;;;;;;;13.07;10.10;;;;;;;9.54;100.00;99186.34;7391416;19;20415;-58
2022/05/25 02:42:04;;;;;;;16.17;11.03;;;;;;;9.63;100.00;99184.81;7395369;19;20392;-58
2022/05/25 02:44:34;;;;;;;15.93;11.50;;;;;;;9.67;100.00;99184.03;7391669;19;20411;-59
2022/05/25 02:47:06;;;;;;;13.83;10.17;;;;;;;9.75;100.00;99190.22;7396016;19;20380;-57
2022/05/25 02:49:35;;;;;;;13.57;10.43;;;;;;;9.75;100.00;99204.78;7390498;19;20422;-57
2022/05/25 02:52:07;;;;;;;15.13;11.20;;;;;;;9.77;100.00;99209.13;7395204;19;20396;-57
2022/05/25 02:54:37;;;;;;;13.30;10.73;;;;;;;9.76;100.00;99209.97;7391186;19;20937;-55
2022/05/25 02:57:08;;;;;;;14.23;10.60;;;;;;;9.76;100.00;99220.28;7395798;19;20409;-56
2022/05/25 02:59:37;;;;;;;12.50;10.60;;;;;;;9.76;100.00;99217.72;7391019;19;20945;-58
2022/05/25 03:02:09;;;;;;;14.10;11.10;;;;;;;9.78;100.00;99228.03;7395013;19;20391;-57
2022/05/25 03:04:40;;;;;;;11.93;10.10;;;;;;;9.87;100.00;99230.81;7388394;19;20418;-57
2022/05/25 03:07:10;;;;;;;15.50;11.30;;;;;;;9.84;100.00;99231.59;7395579;19;20394;-56
2022/05/25 03:09:40;;;;;;;17.03;12.23;;;;;;;10.00;100.00;99237.94;7395180;19;20415;-54
2022/05/25 03:12:12;;;;;;;12.80;10.60;;;;;;;10.28;100.00;99232.44;7394463;19;20391;-59
2022/05/25 03:14:43;;;;;;;12.63;9.33;;;;;;;10.21;100.00;99238.31;7395399;19;20411;-59
2022/05/25 03:17:16;;;;;;;18.10;12.57;;;;;;;9.93;100.00;99255.81;7395096;19;20392;-57
2022/05/25 03:19:52;;;;;;;15.93;12.70;;;;;;;9.78;100.00;99272.69;7394693;19;20423;-56
2022/05/25 03:22:22;;;;;;;13.50;10.50;;;;;;;9.63;100.00;99282.69;7389426;19;20411;-55
2022/05/25 03:24:52;;;;;;;14.70;9.67;;;;;;;9.55;100.00;99285.06;7394681;19;20750;-58
2022/05/25 03:27:22;;;;;;;15.23;9.60;;;;;;;9.52;100.00;99293.59;7389802;19;20750;-58
2022/05/25 03:29:52;;;;;;;12.33;9.97;;;;;;;9.63;100.00;99292.97;7394173;19;20483;-57
2022/05/25 03:32:24;;;;;;;12.70;9.87;;;;;;;9.51;100.00;99299.59;7388264;19;20775;-58
2022/05/25 03:34:54;;;;;;;17.50;11.43;;;;;;;9.49;100.00;99306.38;7394233;19;20387;-54
2022/05/25 03:37:24;;;;;;;14.60;10.40;;;;;;;9.46;100.00;99306.31;7389699;19;20392;-54
2022/05/25 03:39:54;;;;;;;13.90;10.67;;;;;;;9.39;100.00;99302.72;7393861;19;20948;-56
2022/05/25 03:42:24;;;;;;;15.97;11.10;;;;;;;9.40;100.00;99306.19;7388339;19;20411;-57
2022/05/25 03:44:53;;;;;;;15.17;10.60;;;;;;;9.37;100.00;99306.09;7392135;19;20396;-56
2022/05/25 03:47:25;;;;;;;13.97;10.57;;;;;;;9.39;100.00;99309.59;7388177;19;20914;-58
2022/05/25 03:49:55;;;;;;;13.40;10.57;;;;;;;9.29;100.00;99314.50;7394004;19;20383;-58
2022/05/25 03:52:25;;;;;;;14.40;10.50;;;;;;;9.23;100.00;99318.66;7388428;19;20407;-56
2022/05/25 03:54:55;;;;;;;17.00;10.77;;;;;;;9.17;100.00;99314.22;7398435;19;20936;-57
2022/05/25 03:57:24;;;;;;;16.60;10.33;;;;;;;9.15;100.00;99308.16;7388524;19;20809;-58
2022/05/25 03:59:54;;;;;;;17.33;11.13;;;;;;;9.09;100.00;99314.06;7393531;19;20388;-57
2022/05/25 04:02:26;;;;;;;13.83;10.53;;;;;;;9.07;100.00;99307.13;7387585;19;20431;-52
2022/05/25 04:05:07;;;;;;;14.10;11.03;;;;;;;9.04;100.00;99302.78;7391804;19;20392;-57
2022/05/25 04:07:38;;;;;;;13.70;11.33;;;;;;;9.00;100.00;99294.09;7387951;19;20403;-55
2022/05/25 04:10:12;;;;;;;19.33;14.20;;;;;;;9.02;100.00;99292.44;7393685;19;20463;-57
2022/05/25 04:12:43;;;;;;;13.90;11.27;;;;;;;9.00;100.00;99281.25;7387896;19;20406;-57
2022/05/25 04:15:15;;;;;;;17.93;12.80;;;;;;;9.02;100.00;99283.84;7394726;19;20459;-55
2022/05/25 04:17:47;;;;;;;18.83;12.30;;;;;;;9.07;100.00;99281.41;7394746;19;20752;-57
2022/05/25 04:20:17;;;;;;;16.00;11.47;;;;;;;9.07;100.00;99276.25;7401696;19;20388;-58
2022/05/25 04:22:47;;;;;;;19.07;13.00;;;;;;;9.11;100.00;99268.63;7393533;19;20426;-55
2022/05/25 04:25:18;;;;;;;18.93;12.37;;;;;;;9.12;100.00;99269.50;7398467;19;20384;-55
2022/05/25 04:27:50;;;;;;;17.10;12.83;;;;;;;9.17;100.00;99262.75;7395014;19;20421;-55
2022/05/25 04:30:21;;;;;;;22.40;12.50;;;;;;;9.22;100.00;99260.31;7400974;19;20387;-54
2022/05/25 04:32:53;;;;;;;21.53;14.53;;;;;;;9.24;100.00;99258.63;7394882;19;20759;-56
2022/05/25 04:35:23;;;;;;;17.47;12.73;;;;;;;9.26;100.00;99257.84;7400593;19;20451;-54
2022/05/25 04:37:56;;;;;;;18.10;12.30;;;;;;;9.34;100.00;99252.00;7393161;19;20451;-51
2022/05/25 04:40:30;;;;;;;16.30;12.53;;;;;;;9.38;100.00;99251.22;7403907;19;20729;-57
2022/05/25 04:43:01;;;;;;;20.80;14.50;;;;;;;9.43;100.00;99252.19;7396931;19;20514;-56
2022/05/25 04:45:31;;;;;;;17.83;13.47;;;;;;;9.49;100.00;99267.75;7398046;19;20411;-57
2022/05/25 04:48:04;;;;;;;20.27;13.37;;;;;;;9.54;100.00;99261.03;7394631;19;20426;-57
2022/05/25 04:50:41;;;;;;;18.00;12.80;;;;;;;9.63;100.00;99267.22;7403857;19;20383;-50
2022/05/25 04:53:12;;;;;;;17.00;12.87;;;;;;;9.63;100.00;99278.38;7393450;19;20418;-56
2022/05/25 04:58:25;;;;;;;26.43;15.50;;;;;;;9.70;100.00;99289.69;7394661;19;20944;-57
2022/05/25 05:00:55;;;;;;;23.50;15.03;;;;;;;9.80;100.00;99295.91;7399613;19;20515;-56
2022/05/25 05:03:28;;;;;;;15.77;11.80;;;;;;;9.81;100.00;99308.84;7393131;19;20410;-57
2022/05/25 05:05:58;;;;;;;40.77;19.53;;;;;;;9.84;100.00;99319.19;7399048;19;20383;-54
2022/05/25 05:08:28;;;;;;;17.47;12.43;;;;;;;9.96;100.00;99328.03;7394497;19;20490;-56
2022/05/25 05:10:58;;;;;;;18.60;12.23;;;;;;;10.04;100.00;99330.78;7400220;19;20387;-56
2022/05/25 05:13:28;;;;;;;15.90;11.70;;;;;;;10.17;100.00;99331.88;7392198;19;20425;-58
2022/05/25 05:15:57;;;;;;;21.37;13.13;;;;;;;10.25;100.00;99343.22;7398594;19;20388;-53
2022/05/25 05:18:29;;;;;;;32.97;17.33;;;;;;;10.40;100.00;99360.69;7393368;19;20414;-56
2022/05/25 05:20:59;;;;;;;43.80;31.03;;;;;;;10.50;100.00;99361.78;7399104;19;20410;-56
2022/05/25 05:23:29;;;;;;;25.40;14.97;;;;;;;10.46;100.00;99378.91;7391682;19;20430;-58
2022/05/25 05:25:59;;;;;;;36.13;23.03;;;;;;;10.65;100.00;99380.16;7398427;19;20399;-57
2022/05/25 05:28:33;;;;;;;17.13;10.73;;;;;;;10.67;100.00;99398.25;7391753;19;20451;-56
2022/05/25 05:31:04;;;;;;;13.87;10.00;;;;;;;10.63;100.00;99410.22;7398468;19;20389;-58
2022/05/25 05:33:36;;;;;;;14.60;9.50;;;;;;;10.58;100.00;99427.31;7391981;19;20406;-59
2022/05/25 05:36:09;;;;;;;16.10;10.63;;;;;;;10.62;100.00;99439.41;7398133;19;20392;-57
2022/05/25 05:38:42;;;;;;;12.53;9.10;;;;;;;10.66;100.00;99446.38;7392724;19;20415;-57
2022/05/25 05:41:14;;;;;;;16.33;9.70;;;;;;;10.73;100.00;99456.81;7398258;19;20380;-58
2022/05/25 05:43:44;;;;;;;12.70;8.60;;;;;;;10.78;100.00;99468.09;7391314;19;20423;-54
2022/05/25 05:46:14;;;;;;;10.43;8.43;;;;;;;10.80;100.00;99477.63;7397525;19;20400;-56
2022/05/25 05:48:47;;;;;;;10.63;8.70;;;;;;;10.88;100.00;99477.75;7393113;19;20449;-58
2022/05/25 05:51:16;;;;;;;13.23;8.53;;;;;;;10.92;100.00;99489.03;7398338;19;20467;-57
2022/05/25 05:53:46;;;;;;;11.07;7.80;;;;;;;10.96;100.00;99500.28;7392879;19;20450;-55
2022/05/25 05:56:17;;;;;;;10.03;8.30;;;;;;;11.07;100.00;99498.75;7397788;19;20416;-56
2022/05/25 05:58:53;;;;;;;10.80;8.63;;;;;;;11.16;100.00;99511.88;7393046;19;20440;-55
2022/05/25 06:01:22;;;;;;;14.40;9.10;;;;;;;11.14;100.00;99512.69;7397772;19;20403;-55
2022/05/25 06:03:54;;;;;;;12.10;7.70;;;;;;;11.25;100.00;99518.03;7389442;19;20404;-57
2022/05/25 06:06:25;;;;;;;9.37;7.27;;;;;;;11.21;100.00;99528.31;7394604;19;20769;-58
2022/05/25 06:08:56;;;;;;;11.93;7.70;;;;;;;11.24;100.00;99530.09;7391763;19;20416;-54
2022/05/25 06:11:26;;;;;;;8.67;7.27;;;;;;;11.37;100.00;99540.66;7397483;19;20392;-55
2022/05/25 06:13:56;;;;;;;10.93;6.93;;;;;;;11.42;100.00;99542.47;7390450;19;20415;-56
2022/05/25 06:21:57;;;;;;;8.20;5.47;;;;;;;11.70;100.00;99568.81;7396215;19;20445;-58
2022/05/25 06:24:26;;;;;;;11.20;5.80;;;;;;;11.84;100.00;99581.97;7391057;19;20439;-58
2022/05/25 06:26:56;;;;;;;7.07;5.20;;;;;;;12.01;100.00;99578.84;7396975;19;20389;-56
2022/05/25 06:29:26;;;;;;;7.00;5.27;;;;;;;11.92;100.00;99589.88;7391349;19;20417;-57
2022/05/25 06:31:55;;;;;;;8.50;5.37;;;;;;;12.07;100.00;99593.59;7395873;19;20381;-53
2022/05/25 06:34:27;;;;;;;6.33;4.73;;;;;;;12.10;100.00;99606.59;7389650;19;20429;-54
2022/05/25 06:36:57;;;;;;;8.93;5.80;;;;;;;12.28;100.00;99609.50;7396698;19;20385;-51
2022/05/25 06:39:26;;;;;;;8.23;5.10;;;;;;;12.23;100.00;99629.22;7391531;19;20423;-55
2022/05/25 06:41:56;;;;;;;7.77;5.03;;;;;;;12.29;100.00;99634.50;7395684;19;20382;-55
2022/05/25 06:44:25;;;;;;;6.33;4.00;;;;;;;12.43;100.00;99634.69;7389728;19;20435;-57
2022/05/25 06:46:55;;;;;;;7.50;5.03;;;;;;;12.42;100.00;99648.50;7396221;19;20458;-56
2022/05/25 06:49:27;;;;;;;8.10;6.33;;;;;;;12.43;100.00;99649.38;7390324;19;20411;-56
2022/05/25 06:51:57;;;;;;;11.80;5.47;;;;;;;12.36;100.00;99657.88;7395367;19;20387;-55
2022/05/25 06:54:26;;;;;;;11.90;7.10;;;;;;;12.52;100.00;99670.22;7389082;19;20407;-55
2022/05/25 06:56:56;;;;;;;9.13;5.43;;;;;;;12.74;100.00;99672.28;7395768;19;20473;-52
2022/05/25 06:59:30;;;;;;;8.03;5.30;;;;;;;12.57;100.00;99667.72;7389267;19;20411;-54
2022/05/25 07:01:59;;;;;;;13.90;6.43;;;;;;;12.71;100.00;99685.19;7394865;19;20398;-51
2022/05/25 07:04:32;;;;;;;10.40;6.00;;;;;;;12.88;100.00;99680.25;7387148;19;20422;-56
2022/05/25 07:07:06;;;;;;;9.27;6.20;;;;;;;12.93;100.00;99681.19;7395802;19;20414;-52
2022/05/25 07:09:39;;;;;;;6.80;5.40;;;;;;;12.94;100.00;99703.66;7389681;19;20425;-56
2022/05/25 07:12:09;;;;;;;5.03;4.10;;;;;;;13.01;100.00;99705.47;7394587;19;20426;-53
2022/05/25 07:14:39;;;;;;;6.50;4.77;;;;;;;13.15;100.00;99707.41;7387456;19;20945;-56
2022/05/25 07:17:09;;;;;;;5.40;4.43;;;;;;;13.32;100.00;99715.41;7395289;19;20379;-54
2022/05/25 07:19:42;;;;;;;8.33;3.90;;;;;;;13.14;100.00;99728.97;7391513;19;20399;-56
2022/05/25 07:22:14;;;;;;;4.97;3.73;;;;;;;13.07;100.00;99736.63;7394081;19;20463;-53
2022/05/25 07:24:48;;;;;;;8.27;4.20;;;;;;;13.16;100.00;99746.28;7393906;19;20781;-55
2022/05/25 07:27:17;;;;;;;12.47;5.60;;;;;;;13.24;100.00;99736.88;7390259;19;20387;-52
2022/05/25 07:29:47;;;;;;;5.80;3.40;;;;;;;13.22;100.00;99750.66;7394623;19;20383;-53
2022/05/25 07:32:18;;;;;;;5.30;3.87;;;;;;;13.09;100.00;99755.66;7389176;19;20424;-58
2022/05/25 07:34:54;;;;;;;6.60;3.73;;;;;;;13.20;100.00;99757.53;7394294;19;20387;-55
2022/05/25 07:37:33;;;;;;;5.97;3.50;;;;;;;13.09;100.00;99766.00;7388032;19;20379;-56
2022/05/25 07:40:06;;;;;;;6.30;4.10;;;;;;;13.12;100.00;99779.88;7394692;19;20403;-58
2022/05/25 07:42:36;;;;;;;4.60;3.20;;;;;;;13.13;100.00;99786.78;7387285;19;20397;-58
2022/05/25 07:45:07;;;;;;;5.90;3.50;;;;;;;13.19;100.00;99789.47;7392802;19;20386;-56
2022/05/25 07:47:36;;;;;;;6.77;3.40;;;;;;;13.41;100.00;99785.50;7388338;19;20467;-58
2022/05/25 07:50:10;;;;;;;5.93;3.73;;;;;;;13.62;100.00;99779.78;7393124;19;20497;-57
2022/05/25 07:52:41;;;;;;;7.60;4.00;;;;;;;13.82;100.00;99780.88;7387920;19;20926;-58
2022/05/25 07:55:13;;;;;;;73.17;24.10;;;;;;;13.54;100.00;99783.97;7395320;19;20722;-56
2022/05/25 07:57:42;;;;;;;5.90;3.33;;;;;;;13.56;100.00;99790.06;7389640;19;20408;-55
2022/05/25 08:00:14;;;;;;;17.23;6.57;;;;;;;13.79;100.00;99768.75;7393843;19;20384;-58
2022/05/25 08:05:47;;;;;;;97.53;27.03;;;;;;;13.55;100.00;99774.47;7394998;19;20460;-55
2022/05/25 08:08:20;;;;;;;8.80;4.60;;;;;;;13.90;100.00;99756.78;7388292;19;20415;-56
2022/05/25 08:10:54;;;;;;;10.23;5.20;;;;;;;13.80;100.00;99760.13;7393010;19;20417;-58
2022/05/25 08:13:25;;;;;;;23.17;10.03;;;;;;;14.18;100.00;99736.38;7386525;19;20413;-57
2022/05/25 08:15:54;;;;;;;7.33;2.73;;;;;;;14.47;100.00;99732.34;7393259;19;20378;-57
2022/05/25 08:18:24;;;;;;;20.93;8.30;;;;;;;14.17;100.00;99728.56;7389264;19;20430;-58
2022/05/25 08:20:56;;;;;;;22.50;6.77;;;;;;;14.03;100.00;99728.41;7393095;19;20395;-58
2022/05/25 08:23:26;;;;;;;10.47;3.53;;;;;;;13.97;100.00;99743.91;7387534;19;20425;-58
2022/05/25 08:25:55;;;;;;;9.60;3.63;;;;;;;14.21;100.00;99750.22;7392305;19;20408;-57
2022/05/25 08:28:25;;;;;;;7.17;3.90;;;;;;;14.39;100.00;99752.13;7387767;19;20424;-57
2022/05/25 08:30:55;;;;;;;5.43;3.73;;;;;;;14.43;100.00;99751.31;7392642;19;20903;-58
2022/05/25 08:33:26;;;;;;;9.10;3.37;;;;;;;14.40;100.00;99744.38;7383647;19;20428;-57
2022/05/25 08:36:00;;;;;;;8.90;4.60;;;;;;;14.16;100.00;99751.03;7392993;19;20394;-56
2022/05/25 08:38:30;;;;;;;5.70;3.50;;;;;;;14.51;100.00;99743.59;7387455;19;20436;-55
2022/05/25 08:41:00;;;;;;;14.50;4.43;;;;;;;14.54;100.00;99756.59;7392506;19;20387;-58
2022/05/25 08:43:34;;;;;;;6.87;3.70;;;;;;;14.42;100.00;99760.81;7386702;19;20484;-55
2022/05/25 08:46:06;;;;;;;7.13;3.43;;;;;;;14.21;100.00;99768.38;7390012;19;20383;-54
2022/05/25 08:48:36;;;;;;;6.00;4.23;;;;;;;14.30;100.00;99760.69;7386665;19;20435;-57
2022/05/25 08:51:13;;;;;;;6.23;3.90;;;;;;;14.23;100.00;99748.50;7392191;19;20384;-57
2022/05/25 08:53:43;;;;;;;4.90;3.27;;;;;;;14.03;100.00;99763.00;7385639;19;20488;-59
2022/05/25 08:56:20;;;;;;;20.33;6.73;;;;;;;14.00;100.00;99768.13;7392685;19;20386;-58
2022/05/25 08:59:02;;;;;;;4.97;3.00;;;;;;;14.12;100.00;99754.47;7385804;19;20758;-58
2022/05/25 09:01:49;;;;;;;7.37;3.50;;;;;;;14.48;100.00;99753.94;7392230;19;20386;-59
2022/05/25 09:04:24;;;;;;;9.97;4.30;;;;;;;14.82;100.00;99764.69;7392997;19;20512;-55
2022/05/25 09:07:00;;;;;;;6.20;3.37;;;;;;;15.14;100.00;99756.28;7397735;19;20428;-58
2022/05/25 09:09:42;;;;;;;5.43;3.53;;;;;;;15.02;100.00;99753.59;7393684;19;20398;-57
2022/05/25 09:12:17;;;;;;;7.77;3.30;;;;;;;15.26;100.00;99745.06;7397926;19;20949;-56
2022/05/25 09:14:49;;;;;;;5.47;3.77;;;;;;;15.24;100.00;99755.44;7398467;19;21007;-59
2022/05/25 09:17:25;;;;;;;6.37;3.30;;;;;;;14.94;100.00;99758.72;7392086;19;20385;-58
2022/05/25 09:19:55;;;;;;;11.90;5.67;;;;;;;15.22;100.00;99775.38;7398820;19;20390;-58
2022/05/25 09:22:29;;;;;;;6.73;3.77;;;;;;;15.38;100.00;99770.25;7391985;19;20470;-58
2022/05/25 09:25:00;;;;;;;5.50;3.10;;;;;;;15.73;100.00;99767.00;7398030;19;20392;-58
2022/05/25 09:27:33;;;;;;;3.67;2.30;;;;;;;15.92;100.00;99772.31;7395997;19;20402;-57
2022/05/25 09:30:06;;;;;;;6.83;2.70;;;;;;;15.77;100.00;99783.47;7398595;19;20392;-58
2022/05/25 09:32:40;;;;;;;7.80;3.13;;;;;;;15.28;100.00;99782.31;7386962;19;20431;-56
2022/05/25 09:35:13;;;;;;;5.00;2.70;;;;;;;15.37;100.00;99789.31;7397975;19;20383;-57
2022/05/25 09:37:52;;;;;;;6.20;3.10;;;;;;;15.30;100.00;99784.94;7386805;19;21001;-58
2022/05/25 09:40:24;;;;;;;7.13;2.93;;;;;;;15.23;100.00;99769.31;7398445;19;20401;-59
2022/05/25 09:42:57;;;;;;;11.30;3.77;;;;;;;15.22;100.00;99771.88;7382914;19;20414;-56
2022/05/25 09:45:36;;;;;;;4.77;3.10;;;;;;;15.09;100.00;99771.78;7397910;19;20387;-57
2022/05/25 09:48:15;;;;;;;3.60;2.30;;;;;;;14.92;100.00;99782.06;7390215;19;20409;-55
2022/05/25 09:50:46;;;;;;;4.60;3.27;;;;;;;14.96;100.00;99772.56;7398014;19;20380;-57
2022/05/25 09:53:21;;;;;;;4.40;3.07;;;;;;;15.10;100.00;99775.28;7390979;19;20420;-59
2022/05/25 09:55:54;;;;;;;5.20;3.70;;;;;;;15.07;100.00;99811.63;7399589;19;20466;-58
2022/05/25 09:58:27;;;;;;;5.20;3.10;;;;;;;15.17;100.00;99821.22;7392659;19;20417;-58
2022/05/25 10:00:59;;;;;;;6.40;2.87;;;;;;;15.65;100.00;99836.28;7397582;19;20452;-58
2022/05/25 10:03:38;;;;;;;4.43;3.57;;;;;;;15.96;100.00;99917.16;7388757;19;20414;-59
2022/05/25 10:06:23;;;;;;;8.50;4.40;;;;;;;15.98;100.00;99989.97;7397300;19;20467;-59
2022/05/25 10:09:18;;;;;;;6.00;3.37;;;;;;;15.97;100.00;100035.94;7396597;19;20470;-57
2022/05/25 10:11:50;;;;;;;5.27;3.10;;;;;;;15.62;100.00;100065.94;7391756;19;20769;-57
2022/05/25 10:14:32;;;;;;;3.37;2.33;;;;;;;15.78;100.00;100040.06;7393692;19;20423;-55
2022/05/25 10:17:09;;;;;;;5.70;2.60;;;;;;;15.77;100.00;100039.22;7390299;19;20476;-57
2022/05/25 10:19:48;;;;;;;4.90;3.13;;;;;;;15.80;100.00;100054.81;7396963;19;20392;-55
2022/05/25 10:22:33;;;;;;;5.10;3.40;;;;;;;15.83;100.00;100069.59;7391154;19;20439;-56
2022/05/25 10:25:08;;;;;;;9.70;3.53;;;;;;;16.03;100.00;100051.59;7396883;19;20389;-56
2022/05/25 10:27:40;;;;;;;4.13;2.30;;;;;;;15.97;100.00;100072.34;7385867;19;20436;-57
2022/05/25 10:38:41;;;;;;;4.43;2.43;;;;;;;15.85;100.00;100213.53;7396153;19;20499;-59
2022/05/25 10:44:06;;;;;;;5.37;2.17;;;;;;;15.60;100.00;100202.88;7392957;19;20421;-58
2022/05/25 10:46:36;;;;;;;3.73;2.20;;;;;;;15.65;100.00;100215.91;7391221;19;21025;-59
2022/05/25 10:49:10;;;;;;;4.13;2.50;;;;;;;15.84;100.00;100190.13;7395960;19;20399;-58
2022/05/25 10:51:43;;;;;;;4.10;2.00;;;;;;;16.39;100.00;100222.78;7390389;19;20417;-57
2022/05/25 10:57:06;;;;;;;3.37;1.90;;;;;;;16.28;100.00;100317.25;7389434;19;20416;-56
2022/05/25 10:59:42;;;;;;;7.53;1.70;;;;;;;16.39;100.00;100377.25;7395901;19;20393;-58
2022/05/25 11:02:24;;;;;;;4.13;2.13;;;;;;;16.34;100.00;100423.19;7387022;19;20706;-57
2022/05/25 11:05:19;;;;;;;6.67;1.53;;;;;;;16.28;100.00;100442.19;7395737;19;20412;-58
2022/05/25 11:07:49;;;;;;;4.53;1.23;;;;;;;16.74;100.00;100460.13;7388395;19;20972;-56
2022/05/25 11:10:34;;;;;;;3.17;1.70;;;;;;;16.47;100.00;100572.63;7395837;19;20454;-54
2022/05/25 11:13:18;;;;;;;3.60;1.60;;;;;;;16.54;100.00;100577.06;7387905;19;20513;-53
2022/05/25 11:15:53;;;;;;;3.20;1.87;;;;;;;16.32;100.00;100602.75;7395673;19;20400;-58
2022/05/25 11:18:35;;;;;;;3.83;1.90;;;;;;;16.28;100.00;100608.78;7389925;19;20426;-58
2022/05/25 11:21:16;;;;;;;4.73;2.27;;;;;;;16.03;100.00;100610.09;7394942;19;20391;-55
2022/05/25 11:23:56;;;;;;;4.37;2.70;;;;;;;16.25;100.00;100587.06;7392441;19;20754;-57
2022/05/25 11:26:42;;;;;;;2.63;1.43;;;;;;;16.49;100.00;100604.75;7385971;19;20384;-57
2022/05/25 11:29:24;;;;;;;6.10;2.40;;;;;;;16.40;100.00;100625.47;7395046;19;20981;-59
2022/05/25 11:32:00;;;;;;;5.70;1.90;;;;;;;16.53;100.00;100627.41;7386518;19;20930;-57
2022/05/25 11:34:42;;;;;;;3.40;1.90;;;;;;;16.94;100.00;100635.78;7395210;19;20400;-56
2022/05/25 11:37:21;;;;;;;6.57;3.20;;;;;;;16.52;100.00;100630.88;7388674;19;20759;-58
2022/05/25 11:39:57;;;;;;;4.60;1.80;;;;;;;16.75;100.00;100622.50;7394766;19;20729;-58
2022/05/25 11:42:36;;;;;;;4.50;1.93;;;;;;;17.08;100.00;100618.63;7388810;19;20429;-58
2022/05/25 11:45:15;;;;;;;2.97;1.47;;;;;;;16.77;100.00;100643.34;7394154;19;20409;-60
2022/05/25 11:47:57;;;;;;;5.23;1.70;;;;;;;16.87;100.00;100655.69;7387937;19;20428;-59
2022/05/25 11:50:36;;;;;;;3.80;1.43;;;;;;;16.81;100.00;100656.44;7394697;19;20381;-55
2022/05/25 11:53:18;;;;;;;4.00;1.40;;;;;;;17.08;100.00;100665.53;7386266;19;20436;-57
2022/05/25 11:55:53;;;;;;;4.53;1.20;;;;;;;17.28;100.00;100646.69;7396083;19;20406;-54
2022/05/25 11:58:38;;;;;;;9.63;1.50;;;;;;;17.24;100.00;100639.66;7389207;19;20988;-57
2022/05/25 12:01:17;;;;;;;3.40;1.70;;;;;;;17.01;100.00;100648.03;7394060;19;20733;-55
2022/05/25 12:04:11;;;;;;;3.67;1.67;;;;;;;17.05;100.00;100631.63;7391185;19;20415;-58
2022/05/25 12:06:57;;;;;;;5.00;1.23;;;;;;;17.35;100.00;100652.84;7388212;19;20404;-59
2022/05/25 12:09:38;;;;;;;2.93;1.40;;;;;;;17.33;100.00;100644.13;7389182;19;20424;-57
2022/05/25 12:12:14;;;;;;;8.83;4.37;;;;;;;17.09;100.00;100646.44;7388984;19;20477;-58
2022/05/25 12:14:54;;;;;;;6.83;3.00;;;;;;;16.93;100.00;100650.56;7394823;19;20389;-57
2022/05/25 12:17:31;;;;;;;2.67;1.10;;;;;;;16.72;100.00;100657.19;7388148;19;20440;-59
2022/05/25 12:20:03;;;;;;;15.57;7.83;;;;;;;16.64;100.00;100639.69;7393224;19;20746;-59
2022/05/25 12:22:35;;;;;;;5.60;1.40;;;;;;;16.84;100.00;100625.25;7388961;19;20452;-55